createdAt,value
2017-07-28T00:00:49.378Z,8.68
2017-07-28T00:03:18.281Z,6.20
2017-07-28T00:06:49.371Z,6.28
2017-07-28T00:09:18.275Z,6.85
2017-07-28T00:11:47.174Z,6.25
2017-07-28T00:14:16.091Z,6.80
2017-07-28T00:16:44.989Z,7.20
2017-07-28T00:19:13.902Z,10.23
2017-07-28T00:21:42.791Z,10.65
2017-07-28T00:24:11.655Z,8.88
2017-07-28T00:26:40.546Z,7.12
2017-07-28T00:29:09.435Z,13.40
2017-07-28T00:31:38.346Z,8.80
2017-07-28T00:34:07.219Z,10.48
2017-07-28T00:36:36.144Z,8.20
2017-07-28T00:39:05.718Z,8.90
2017-07-28T00:41:34.679Z,8.13
2017-07-28T00:44:03.546Z,8.20
2017-07-28T00:46:32.439Z,8.73
2017-07-28T00:49:01.323Z,7.87
2017-07-28T00:51:30.197Z,9.30
2017-07-28T00:53:59.135Z,8.48
2017-07-28T00:56:28.071Z,8.27
2017-07-28T00:58:56.987Z,9.52
2017-07-28T01:01:25.943Z,17.85
2017-07-28T01:03:54.819Z,12.25
2017-07-28T01:06:38.314Z,10.20
2017-07-28T01:09:07.246Z,11.32
2017-07-28T01:11:36.168Z,10.50
2017-07-28T01:14:05.106Z,11.27
2017-07-28T01:16:34.004Z,14.87
2017-07-28T01:19:03.119Z,12.85
2017-07-28T01:21:32.463Z,11.10
2017-07-28T01:24:01.388Z,10.68
2017-07-28T01:26:30.286Z,12.57
2017-07-28T01:28:59.175Z,11.63
2017-07-28T01:31:29.043Z,12.13
2017-07-28T01:33:57.982Z,12.77
2017-07-28T01:36:26.903Z,12.68
2017-07-28T01:38:55.831Z,12.63
2017-07-28T01:41:24.750Z,13.98
2017-07-28T01:43:53.779Z,12.00
2017-07-28T01:46:22.700Z,15.98
2017-07-28T01:48:51.587Z,14.02
2017-07-28T01:51:20.536Z,13.50
2017-07-28T01:53:49.457Z,15.70
2017-07-28T01:56:18.467Z,11.52
2017-07-28T01:58:47.463Z,14.90
2017-07-28T02:02:35.706Z,13.30
2017-07-28T02:05:04.699Z,15.07
2017-07-28T02:07:33.630Z,15.55
2017-07-28T02:12:37.790Z,15.35
2017-07-28T02:15:06.707Z,13.00
2017-07-28T02:17:35.599Z,17.73
2017-07-28T02:20:04.559Z,14.20
2017-07-28T02:22:33.443Z,15.65
2017-07-28T02:25:02.359Z,16.48
2017-07-28T02:27:31.324Z,16.00
2017-07-28T02:30:00.207Z,15.50
2017-07-28T02:32:29.084Z,14.43
2017-07-28T02:34:58.258Z,15.52
2017-07-28T02:37:27.480Z,18.75
2017-07-28T02:39:56.410Z,13.85
2017-07-28T02:42:25.300Z,16.70
2017-07-28T02:44:54.220Z,15.90
2017-07-28T02:47:23.110Z,15.70
2017-07-28T02:49:52.025Z,15.07
2017-07-28T02:52:20.915Z,19.50
2017-07-28T02:54:49.830Z,17.02
2017-07-28T02:57:18.777Z,13.30
2017-07-28T02:59:47.641Z,14.70
2017-07-28T03:02:16.548Z,17.30
2017-07-28T03:04:45.414Z,14.70
2017-07-28T03:07:14.439Z,16.60
2017-07-28T03:09:43.306Z,22.87
2017-07-28T03:12:12.244Z,16.48
2017-07-28T03:14:41.142Z,15.57
2017-07-28T03:18:29.419Z,20.58
2017-07-28T03:20:58.360Z,11.75
2017-07-28T03:23:27.279Z,15.07
2017-07-28T03:27:15.387Z,16.75
2017-07-28T03:29:44.239Z,19.75
2017-07-28T03:32:13.137Z,13.57
2017-07-28T03:34:42.055Z,15.15
2017-07-28T03:37:10.950Z,16.90
2017-07-28T03:39:39.840Z,15.70
2017-07-28T03:42:08.803Z,19.92
2017-07-28T03:44:37.664Z,18.23
2017-07-28T03:47:06.575Z,16.80
2017-07-28T03:49:35.511Z,19.00
2017-07-28T03:52:04.795Z,17.62
2017-07-28T03:54:33.704Z,17.98
2017-07-28T03:57:02.640Z,21.50
2017-07-28T03:59:31.516Z,18.77
2017-07-28T04:02:00.399Z,20.35
2017-07-28T04:04:29.296Z,19.67
2017-07-28T04:06:58.175Z,19.87
2017-07-28T04:09:27.080Z,22.70
2017-07-28T04:11:55.963Z,23.75
2017-07-28T04:14:24.882Z,17.62
2017-07-28T04:16:53.802Z,21.42
2017-07-28T04:19:22.707Z,18.73
2017-07-28T04:21:51.599Z,22.13
2017-07-28T04:24:20.549Z,22.95
2017-07-28T04:26:49.439Z,19.27
2017-07-28T04:29:18.404Z,17.08
2017-07-28T04:31:47.310Z,24.37
2017-07-28T04:34:16.180Z,22.65
2017-07-28T04:36:45.156Z,24.80
2017-07-28T04:39:14.083Z,22.30
2017-07-28T04:41:43.030Z,22.70
2017-07-28T04:44:11.940Z,27.23
2017-07-28T04:46:40.915Z,26.70
2017-07-28T04:49:12.835Z,25.80
2017-07-28T04:51:41.750Z,24.75
2017-07-28T04:54:10.635Z,22.52
2017-07-28T04:56:39.573Z,26.35
2017-07-28T04:59:08.464Z,22.87
2017-07-28T05:01:37.343Z,21.42
2017-07-28T05:04:06.223Z,24.37
2017-07-28T05:06:35.118Z,24.05
2017-07-28T05:09:04.184Z,19.80
2017-07-28T05:11:33.134Z,20.37
2017-07-28T05:14:02.363Z,20.05
2017-07-28T05:16:31.257Z,17.15
2017-07-28T05:19:00.204Z,18.95
2017-07-28T05:21:29.178Z,18.62
2017-07-28T05:23:58.089Z,16.75
2017-07-28T05:26:26.991Z,19.33
2017-07-28T05:28:56.160Z,21.77
2017-07-28T05:31:25.036Z,17.27
2017-07-28T05:33:54.200Z,13.77
2017-07-28T05:36:23.164Z,12.40
2017-07-28T05:38:52.070Z,13.30
2017-07-28T05:41:20.982Z,13.43
2017-07-28T05:43:49.971Z,12.60
2017-07-28T05:46:18.899Z,12.63
2017-07-28T05:48:47.783Z,15.15
2017-07-28T05:51:16.745Z,16.33
2017-07-28T05:53:45.672Z,17.33
2017-07-28T05:56:14.555Z,11.93
2017-07-28T05:58:43.439Z,11.43
2017-07-28T06:01:12.422Z,9.90
2017-07-28T06:03:41.335Z,17.23
2017-07-28T06:06:10.268Z,12.60
2017-07-28T06:11:17.281Z,11.23
2017-07-28T06:13:46.178Z,9.73
2017-07-28T06:16:15.120Z,9.80
2017-07-28T06:18:44.017Z,12.02
2017-07-28T06:21:12.911Z,9.18
2017-07-28T06:23:41.841Z,8.40
2017-07-28T06:26:10.748Z,9.68
2017-07-28T06:28:39.724Z,7.87
2017-07-28T06:31:08.774Z,6.70
2017-07-28T06:33:37.728Z,10.60
2017-07-28T06:36:06.639Z,9.75
2017-07-28T06:38:35.828Z,9.30
2017-07-28T06:41:11.072Z,9.87
2017-07-28T06:43:40.017Z,9.73
2017-07-28T06:46:08.979Z,8.13
2017-07-28T06:48:37.930Z,7.23
2017-07-28T06:51:06.889Z,6.03
2017-07-28T06:53:35.792Z,8.00
2017-07-28T06:56:04.747Z,7.63
2017-07-28T06:58:33.673Z,13.10
2017-07-28T07:01:02.592Z,7.17
2017-07-28T07:03:31.484Z,8.50
2017-07-28T07:06:00.416Z,8.20
2017-07-28T07:08:29.383Z,6.30
2017-07-28T07:10:58.355Z,5.83
2017-07-28T07:13:27.243Z,9.70
2017-07-28T07:15:56.173Z,8.90
2017-07-28T07:18:25.141Z,9.47
2017-07-28T07:20:54.028Z,7.53
2017-07-28T07:23:22.924Z,11.90
2017-07-28T07:25:51.865Z,5.13
2017-07-28T07:28:20.771Z,8.37
2017-07-28T07:30:49.730Z,6.70
2017-07-28T07:33:18.651Z,8.77
2017-07-28T07:35:48.377Z,7.35
2017-07-28T07:38:18.207Z,8.25
2017-07-28T07:40:47.139Z,6.28
2017-07-28T07:43:16.288Z,9.95
2017-07-28T07:45:45.192Z,7.12
2017-07-28T07:48:14.093Z,6.47
2017-07-28T07:50:42.989Z,5.70
2017-07-28T07:53:11.919Z,8.20
2017-07-28T07:56:11.579Z,7.40
2017-07-28T07:59:59.859Z,6.28
2017-07-28T08:02:28.780Z,6.90
2017-07-28T08:04:57.738Z,8.30
2017-07-28T08:07:27.647Z,6.32
2017-07-28T08:09:56.594Z,7.78
2017-07-28T08:12:25.731Z,8.13
2017-07-28T08:14:54.719Z,7.53
2017-07-28T08:17:23.639Z,8.48
2017-07-28T08:19:52.568Z,5.82
2017-07-28T08:22:21.579Z,6.53
2017-07-28T08:24:50.585Z,4.55
2017-07-28T08:27:19.519Z,7.22
2017-07-28T08:29:48.399Z,6.00
2017-07-28T08:32:17.318Z,5.82
2017-07-28T08:34:46.230Z,5.43
2017-07-28T08:37:15.152Z,5.85
2017-07-28T08:39:44.091Z,8.93
2017-07-28T08:42:13.002Z,4.43
2017-07-28T08:44:41.883Z,8.38
2017-07-28T08:47:10.863Z,9.55
2017-07-28T08:49:39.762Z,8.48
2017-07-28T08:52:08.996Z,4.45
2017-07-28T08:54:37.953Z,5.57
2017-07-28T08:57:06.863Z,9.95
2017-07-28T08:59:35.750Z,8.88
2017-07-28T09:02:04.739Z,9.50
2017-07-28T09:04:33.667Z,8.57
2017-07-28T09:07:02.690Z,9.65
2017-07-28T09:09:31.654Z,9.93
2017-07-28T09:12:00.592Z,9.15
2017-07-28T09:14:29.660Z,6.03
2017-07-28T09:16:58.650Z,6.47
2017-07-28T09:19:28.159Z,6.20
2017-07-28T09:22:00.345Z,5.82
2017-07-28T09:24:30.140Z,5.05
2017-07-28T09:26:59.152Z,6.03
2017-07-28T09:29:28.154Z,9.00
2017-07-28T09:31:57.120Z,5.22
2017-07-28T09:34:26.852Z,5.55
2017-07-28T09:36:55.823Z,5.75
2017-07-28T09:39:24.792Z,7.20
2017-07-28T09:41:53.755Z,8.38
2017-07-28T09:44:22.801Z,8.80
2017-07-28T09:46:51.706Z,9.38
2017-07-28T09:49:20.716Z,8.30
2017-07-28T09:51:49.620Z,7.20
2017-07-28T09:54:18.625Z,7.75
2017-07-28T09:56:47.675Z,5.30
2017-07-28T09:59:16.636Z,8.77
2017-07-28T10:01:45.573Z,7.65
2017-07-28T10:04:14.632Z,9.27
2017-07-28T10:06:43.560Z,13.32
2017-07-28T10:09:12.532Z,5.57
2017-07-28T10:11:41.885Z,5.85
2017-07-28T10:14:10.863Z,8.63
2017-07-28T10:16:39.964Z,4.97
2017-07-28T10:19:08.916Z,7.90
2017-07-28T10:21:37.911Z,7.82
2017-07-28T10:24:06.849Z,8.25
2017-07-28T10:26:35.823Z,6.18
2017-07-28T10:29:04.755Z,7.07
2017-07-28T10:31:33.683Z,6.03
2017-07-28T10:34:02.661Z,7.53
2017-07-28T10:36:31.610Z,9.45
2017-07-28T10:39:00.668Z,6.10
2017-07-28T10:41:29.732Z,5.60
2017-07-28T10:43:58.715Z,7.37
2017-07-28T10:49:05.870Z,5.10
2017-07-28T10:51:34.868Z,5.32
2017-07-28T10:54:03.834Z,7.60
2017-07-28T10:56:32.759Z,5.85
2017-07-28T10:59:01.849Z,5.60
2017-07-28T11:01:30.869Z,5.12
2017-07-28T11:03:59.918Z,8.32
2017-07-28T11:06:28.912Z,6.68
2017-07-28T11:08:57.809Z,6.40
2017-07-28T11:11:26.776Z,10.45
2017-07-28T11:13:55.735Z,7.62
2017-07-28T11:16:24.749Z,4.18
2017-07-28T11:18:53.719Z,4.57
2017-07-28T11:21:22.682Z,6.57
2017-07-28T11:23:51.615Z,4.40
2017-07-28T11:26:23.623Z,6.53
2017-07-28T11:28:52.583Z,5.75
2017-07-28T11:31:21.817Z,4.62
2017-07-28T11:33:50.911Z,3.87
2017-07-28T11:36:19.937Z,6.12
2017-07-28T11:38:48.947Z,5.07
2017-07-28T11:41:17.902Z,4.43
2017-07-28T11:43:46.936Z,4.70
2017-07-28T11:46:15.893Z,3.58
2017-07-28T11:48:44.819Z,6.60
2017-07-28T11:51:13.806Z,3.97
2017-07-28T11:53:42.760Z,3.37
2017-07-28T11:56:11.762Z,6.50
2017-07-28T11:58:40.739Z,5.22
2017-07-28T12:01:09.708Z,5.77
2017-07-28T12:03:38.693Z,3.67
2017-07-28T12:06:07.620Z,6.75
2017-07-28T12:08:36.598Z,4.63
2017-07-28T12:11:35.751Z,5.87
2017-07-28T12:14:04.703Z,3.97
2017-07-28T12:16:33.632Z,5.50
2017-07-28T12:19:02.570Z,4.30
2017-07-28T12:21:31.545Z,3.73
2017-07-28T12:24:00.559Z,3.53
2017-07-28T12:26:29.512Z,4.40
2017-07-28T12:28:58.493Z,6.53
2017-07-28T12:31:27.476Z,5.40
2017-07-28T12:33:56.438Z,4.40
2017-07-28T12:36:25.475Z,4.00
2017-07-28T12:38:54.400Z,4.47
2017-07-28T12:41:23.373Z,5.65
2017-07-28T12:43:52.303Z,4.80
2017-07-28T12:46:21.266Z,4.35
2017-07-28T12:48:50.366Z,8.38
2017-07-28T12:51:19.334Z,4.65
2017-07-28T12:53:48.309Z,7.70
2017-07-28T12:56:17.268Z,4.15
2017-07-28T12:58:46.226Z,4.72
2017-07-28T13:01:15.198Z,3.80
2017-07-28T13:03:44.197Z,5.50
2017-07-28T13:06:13.145Z,3.72
2017-07-28T13:08:42.062Z,3.53
2017-07-28T13:11:11.049Z,3.03
2017-07-28T13:13:40.232Z,3.58
2017-07-28T13:16:09.245Z,4.97
2017-07-28T13:18:38.411Z,3.55
2017-07-28T13:21:07.376Z,2.53
2017-07-28T13:23:36.344Z,5.57
2017-07-28T13:26:05.294Z,2.50
2017-07-28T13:28:34.306Z,4.55
2017-07-28T13:31:03.283Z,2.65
2017-07-28T13:33:32.299Z,3.72
2017-07-28T13:36:01.365Z,4.85
2017-07-28T13:38:30.322Z,5.78
2017-07-28T13:40:59.324Z,3.17
2017-07-28T13:43:28.358Z,4.43
2017-07-28T13:46:01.502Z,3.42
2017-07-28T13:48:30.470Z,6.78
2017-07-28T13:50:59.455Z,2.47
2017-07-28T13:53:28.439Z,3.10
2017-07-28T13:55:57.391Z,5.12
2017-07-28T13:58:26.368Z,3.53
2017-07-28T14:00:55.332Z,5.15
2017-07-28T14:03:24.404Z,3.53
2017-07-28T14:05:53.701Z,4.28
2017-07-28T14:08:22.687Z,2.83
2017-07-28T14:10:51.717Z,4.87
2017-07-28T14:13:20.690Z,4.40
2017-07-28T14:15:49.659Z,6.18
2017-07-28T14:18:18.600Z,5.95
2017-07-28T14:20:47.543Z,2.75
2017-07-28T14:23:16.595Z,5.75
2017-07-28T14:25:45.575Z,3.00
2017-07-28T14:28:17.611Z,3.92
2017-07-28T14:30:46.722Z,5.87
2017-07-28T14:33:15.705Z,2.55
2017-07-28T14:36:15.344Z,2.55
2017-07-28T14:41:22.457Z,3.08
2017-07-28T14:43:51.419Z,2.70
2017-07-28T14:46:20.408Z,2.85
2017-07-28T14:48:49.483Z,3.12
2017-07-28T14:51:18.470Z,4.12
2017-07-28T14:53:47.466Z,2.97
2017-07-28T14:56:16.458Z,5.75
2017-07-28T14:58:45.487Z,2.37
2017-07-28T15:01:14.440Z,4.05
2017-07-28T15:03:43.427Z,3.43
2017-07-28T15:06:12.406Z,7.15
2017-07-28T15:08:41.472Z,4.95
2017-07-28T15:11:10.477Z,2.90
2017-07-28T15:13:39.469Z,5.62
2017-07-28T15:16:08.525Z,2.47
2017-07-28T15:18:37.742Z,5.25
2017-07-28T15:21:06.686Z,3.15
2017-07-28T15:23:35.643Z,3.85
2017-07-28T15:26:04.670Z,2.90
2017-07-28T15:28:33.620Z,2.85
2017-07-28T15:31:02.639Z,4.22
2017-07-28T15:33:31.688Z,3.65
2017-07-28T15:36:00.665Z,4.05
2017-07-28T15:38:29.689Z,3.50
2017-07-28T15:40:58.639Z,4.55
2017-07-28T15:43:27.647Z,6.68
2017-07-28T15:45:56.617Z,7.32
2017-07-28T15:48:25.569Z,3.00
2017-07-28T15:50:54.565Z,6.90
2017-07-28T15:53:23.619Z,5.07
2017-07-28T15:55:52.823Z,3.80
2017-07-28T15:58:21.919Z,4.15
2017-07-28T16:00:50.918Z,2.90
2017-07-28T16:03:19.875Z,4.37
2017-07-28T16:06:19.453Z,4.95
2017-07-28T16:08:50.205Z,5.12
2017-07-28T16:11:19.179Z,3.72
2017-07-28T16:13:48.180Z,4.90
2017-07-28T16:16:17.187Z,5.60
2017-07-28T16:18:46.133Z,7.37
2017-07-28T16:21:15.125Z,4.43
2017-07-28T16:23:44.096Z,3.72
2017-07-28T16:26:13.097Z,4.40
2017-07-28T16:28:42.153Z,3.72
2017-07-28T16:31:11.234Z,4.20
2017-07-28T16:33:40.283Z,3.08
2017-07-28T16:36:09.249Z,6.45
2017-07-28T16:38:38.272Z,2.30
2017-07-28T16:41:07.233Z,5.05
2017-07-28T16:43:36.325Z,3.33
2017-07-28T16:46:05.605Z,4.10
2017-07-28T16:48:34.537Z,3.12
2017-07-28T16:51:03.554Z,6.30
2017-07-28T16:53:32.605Z,5.68
2017-07-28T16:56:01.668Z,4.10
2017-07-28T16:58:30.631Z,3.67
2017-07-28T17:00:59.606Z,4.82
2017-07-28T17:03:28.635Z,8.75
2017-07-28T17:05:57.796Z,3.25
2017-07-28T17:08:26.881Z,4.32
2017-07-28T17:10:55.952Z,6.12
2017-07-28T17:13:24.991Z,3.83
2017-07-28T17:15:53.988Z,4.37
2017-07-28T17:18:23.007Z,5.43
2017-07-28T17:20:52.094Z,6.78
2017-07-28T17:23:21.206Z,2.95
2017-07-28T17:25:50.158Z,7.82
2017-07-28T17:28:19.225Z,5.30
2017-07-28T17:30:48.216Z,4.68
2017-07-28T17:33:17.272Z,2.60
2017-07-28T17:35:46.579Z,4.45
2017-07-28T17:38:16.988Z,4.72
2017-07-28T17:40:46.229Z,3.87
2017-07-28T17:43:15.643Z,7.03
2017-07-28T17:45:44.587Z,8.35
2017-07-28T17:48:13.827Z,7.22
2017-07-28T17:50:42.854Z,7.57
2017-07-28T17:53:11.928Z,3.72
2017-07-28T17:55:40.835Z,8.02
2017-07-28T17:58:09.796Z,3.47
2017-07-28T18:00:38.768Z,5.60
2017-07-28T18:03:07.710Z,3.65
2017-07-28T18:05:36.690Z,3.53
2017-07-28T18:08:05.659Z,8.07
2017-07-28T18:10:34.707Z,5.90
2017-07-28T18:13:05.040Z,3.40
2017-07-28T18:15:34.026Z,5.43
2017-07-28T18:18:03.056Z,9.40
2017-07-28T18:20:32.586Z,4.03
2017-07-28T18:23:01.609Z,8.02
2017-07-28T18:25:30.561Z,9.88
2017-07-28T18:27:59.499Z,7.15
2017-07-28T18:30:28.446Z,5.90
2017-07-28T18:32:57.435Z,3.58
2017-07-28T18:35:26.374Z,5.95
2017-07-28T18:37:55.345Z,7.55
2017-07-28T18:40:24.312Z,3.45
2017-07-28T18:42:53.969Z,7.10
2017-07-28T18:45:23.030Z,5.53
2017-07-28T18:47:52.009Z,5.95
2017-07-28T18:50:20.971Z,6.47
2017-07-28T18:52:50.313Z,5.43
2017-07-28T18:55:19.387Z,3.70
2017-07-28T18:57:48.386Z,3.30
2017-07-28T19:00:17.411Z,4.00
2017-07-28T19:02:46.459Z,6.18
2017-07-28T19:05:15.471Z,4.40
2017-07-28T19:07:44.535Z,6.00
2017-07-28T19:10:13.827Z,4.93
2017-07-28T19:12:43.563Z,4.85
2017-07-28T19:15:12.825Z,3.78
2017-07-28T19:17:42.691Z,5.40
2017-07-28T19:20:12.561Z,4.25
2017-07-28T19:22:41.590Z,5.37
2017-07-28T19:25:10.591Z,4.97
2017-07-28T19:27:39.601Z,6.75
2017-07-28T19:30:08.591Z,6.60
2017-07-28T19:32:37.543Z,5.75
2017-07-28T19:35:06.540Z,5.57
2017-07-28T19:37:35.613Z,6.20
2017-07-28T19:40:04.586Z,3.85
2017-07-28T19:42:33.681Z,3.10
2017-07-28T19:45:02.670Z,6.93
2017-07-28T19:47:31.668Z,3.25
2017-07-28T19:50:00.688Z,4.47
2017-07-28T19:52:29.660Z,6.53
2017-07-28T19:54:58.579Z,4.22
2017-07-28T19:57:27.580Z,3.08
2017-07-28T19:59:56.589Z,5.90
2017-07-28T20:02:25.578Z,4.75
2017-07-28T20:04:54.563Z,4.12
2017-07-28T20:07:23.593Z,5.50
2017-07-28T20:09:52.600Z,3.00
2017-07-28T20:12:21.625Z,5.10
2017-07-28T20:14:50.898Z,4.80
2017-07-28T20:17:20.044Z,3.17
2017-07-28T20:19:49.299Z,3.25
2017-07-28T20:22:18.324Z,6.07
2017-07-28T20:24:47.329Z,6.10
2017-07-28T20:27:16.311Z,4.03
2017-07-28T20:29:45.631Z,4.43
2017-07-28T20:32:14.661Z,5.87
2017-07-28T20:34:43.686Z,4.65
2017-07-28T20:37:12.770Z,3.40
2017-07-28T20:39:41.768Z,5.43
2017-07-28T20:42:10.778Z,7.65
2017-07-28T20:44:39.748Z,6.78
2017-07-28T20:47:08.675Z,8.98
2017-07-28T20:49:37.669Z,5.00
2017-07-28T20:52:06.667Z,4.93
2017-07-28T20:54:35.631Z,5.78
2017-07-28T20:57:04.704Z,8.80
2017-07-28T20:59:33.694Z,5.68
2017-07-28T21:02:02.903Z,4.35
2017-07-28T21:04:31.919Z,4.95
2017-07-28T21:07:00.946Z,4.40
2017-07-28T21:09:29.902Z,5.87
2017-07-28T21:11:59.028Z,4.47
2017-07-28T21:14:28.126Z,6.78
2017-07-28T21:16:57.201Z,4.50
2017-07-28T21:19:26.143Z,4.65
2017-07-28T21:21:55.078Z,2.92
2017-07-28T21:24:24.008Z,6.55
2017-07-28T21:26:52.964Z,3.97
2017-07-28T21:29:21.941Z,4.85
2017-07-28T21:31:50.863Z,3.47
2017-07-28T21:34:19.842Z,3.25
2017-07-28T21:36:48.836Z,5.50
2017-07-28T21:39:17.792Z,5.45
2017-07-28T21:41:46.752Z,3.70
2017-07-28T21:44:15.752Z,6.85
2017-07-28T21:46:45.111Z,4.03
2017-07-28T21:49:14.067Z,5.75
2017-07-28T21:51:43.044Z,3.28
2017-07-28T21:54:12.043Z,2.30
2017-07-28T21:56:41.046Z,5.80
2017-07-28T21:59:09.979Z,2.40
2017-07-28T22:01:38.937Z,3.12
2017-07-28T22:04:07.972Z,4.07
2017-07-28T22:06:36.912Z,2.45
2017-07-28T22:09:36.227Z,4.32
2017-07-28T22:12:05.186Z,5.75
2017-07-28T22:14:34.139Z,2.67
2017-07-28T22:17:03.140Z,3.22
2017-07-28T22:19:32.132Z,5.87
2017-07-28T22:22:01.014Z,4.05
2017-07-28T22:24:29.927Z,5.80
2017-07-28T22:26:58.891Z,3.35
2017-07-28T22:29:27.884Z,4.20
2017-07-28T22:31:56.798Z,4.55
2017-07-28T22:34:25.771Z,3.95
2017-07-28T22:36:55.010Z,2.85
2017-07-28T22:39:23.956Z,5.57
2017-07-28T22:41:53.012Z,4.87
2017-07-28T22:44:21.996Z,6.97
2017-07-28T22:46:56.713Z,4.12
2017-07-28T22:49:25.663Z,7.62
2017-07-28T22:51:54.642Z,5.35
2017-07-28T22:57:01.942Z,4.28
2017-07-28T22:59:30.848Z,4.00
2017-07-28T23:01:59.730Z,5.00
2017-07-28T23:04:28.645Z,3.37
2017-07-28T23:06:57.625Z,4.60
2017-07-28T23:09:26.535Z,4.90
2017-07-28T23:11:55.483Z,3.85
2017-07-28T23:14:24.486Z,3.65
2017-07-28T23:16:53.434Z,4.05
2017-07-28T23:22:00.486Z,4.00
2017-07-28T23:24:29.379Z,7.57
2017-07-28T23:26:58.339Z,6.60
2017-07-28T23:29:27.265Z,8.82
2017-07-28T23:31:56.151Z,3.80
2017-07-28T23:34:25.087Z,3.97
2017-07-28T23:36:54.188Z,9.40
2017-07-28T23:39:23.112Z,3.03
2017-07-28T23:41:52.007Z,4.00
2017-07-28T23:44:21.166Z,5.60
2017-07-28T23:46:50.078Z,4.72
2017-07-28T23:49:19.046Z,4.85
2017-07-28T23:51:47.982Z,2.90
2017-07-28T23:54:16.907Z,3.83
2017-07-28T23:56:45.814Z,5.10
2017-07-28T23:59:14.818Z,4.65
